Time;durP1;ratioP1;P1;durP2;ratioP2;P2;SDS_P1;SDS_P2;PMS_P1;PMS_P2;Temp;Humidity;BMP_temperature;BMP_pressure;BME280_temperature;BME280_humidity;BME280_pressure;Samples;Min_cycle;Max_cycle;Signal;HPM_P1;HPM_P2
2022/12/07 00:01:25;;;;;;;10.45;6.82;;;;;;;;;;4898142;29;20044;-61
2022/12/07 00:03:52;;;;;;;6.88;5.50;;;;;;;;;;4897686;29;20084;-60
2022/12/07 00:06:19;;;;;;;7.35;5.78;;;;;;;;;;4897409;29;20049;-61
2022/12/07 00:08:46;;;;;;;9.57;6.25;;;;;;;;;;4897816;29;20044;-61
2022/12/07 00:11:19;;;;;;;8.27;6.13;;;;;;;;;;4897917;29;20051;-61
2022/12/07 00:13:46;;;;;;;9.43;6.60;;;;;;;;;;4880919;29;20382;-62
2022/12/07 00:16:14;;;;;;;11.82;6.72;;;;;;;;;;4896956;29;20048;-62
2022/12/07 00:18:41;;;;;;;9.35;6.53;;;;;;;;;;4897488;29;20450;-62
2022/12/07 00:21:12;;;;;;;9.15;5.78;;;;;;;;;;4880712;29;20104;-62
2022/12/07 00:23:39;;;;;;;8.23;5.95;;;;;;;;;;4897510;29;20052;-62
2022/12/07 00:26:06;;;;;;;12.10;6.60;;;;;;;;;;4896913;29;20044;-62
2022/12/07 00:28:33;;;;;;;9.85;6.80;;;;;;;;;;4897350;29;20045;-62
2022/12/07 00:31:03;;;;;;;11.27;7.32;;;;;;;;;;4897370;29;20056;-62
2022/12/07 00:33:30;;;;;;;10.95;7.65;;;;;;;;;;4897418;29;20048;-61
2022/12/07 00:35:57;;;;;;;10.07;7.03;;;;;;;;;;4880684;29;20048;-61
2022/12/07 00:38:24;;;;;;;10.20;6.80;;;;;;;;;;4897718;29;20063;-60
2022/12/07 00:41:14;;;;;;;8.68;6.47;;;;;;;;;;4897588;29;20052;-61
2022/12/07 00:43:41;;;;;;;10.00;6.85;;;;;;;;;;4871081;29;20064;-60
2022/12/07 00:46:07;;;;;;;10.77;6.93;;;;;;;;;;4896789;29;20049;-61
2022/12/07 00:48:34;;;;;;;9.57;6.55;;;;;;;;;;4896947;29;20465;-61
2022/12/07 00:51:00;;;;;;;9.55;6.82;;;;;;;;;;4897074;29;20040;-62
2022/12/07 00:53:27;;;;;;;10.57;7.32;;;;;;;;;;4896878;29;20041;-61
2022/12/07 00:55:55;;;;;;;9.82;7.47;;;;;;;;;;4896304;29;20113;-62
2022/12/07 00:58:22;;;;;;;10.25;7.28;;;;;;;;;;4896985;29;20558;-60
2022/12/07 01:08:09;;;;;;;10.27;6.47;;;;;;;;;;4893982;29;20044;-60
2022/12/07 01:10:36;;;;;;;8.85;6.57;;;;;;;;;;4896848;29;20037;-60
2022/12/07 01:13:02;;;;;;;10.68;6.45;;;;;;;;;;4897194;29;20104;-60
2022/12/07 01:15:29;;;;;;;10.77;7.07;;;;;;;;;;4880249;29;20100;-60
2022/12/07 01:17:55;;;;;;;9.63;6.68;;;;;;;;;;4895801;29;20124;-61
2022/12/07 01:20:21;;;;;;;8.23;6.43;;;;;;;;;;4896793;29;20064;-60
2022/12/07 01:22:48;;;;;;;8.65;6.68;;;;;;;;;;4880075;29;20048;-60
2022/12/07 01:25:15;;;;;;;8.27;6.50;;;;;;;;;;4896297;29;20048;-59
2022/12/07 01:27:41;;;;;;;9.75;6.70;;;;;;;;;;4896683;29;20139;-61
2022/12/07 01:30:08;;;;;;;10.30;6.82;;;;;;;;;;4896554;29;20382;-61
2022/12/07 01:32:34;;;;;;;9.43;6.78;;;;;;;;;;4896513;29;20076;-60
2022/12/07 01:35:00;;;;;;;9.38;6.53;;;;;;;;;;4896104;29;20183;-60
2022/12/07 01:37:27;;;;;;;11.85;6.68;;;;;;;;;;4879828;29;20397;-60
2022/12/07 01:39:53;;;;;;;9.25;6.80;;;;;;;;;;4896822;29;20049;-61
2022/12/07 01:42:20;;;;;;;9.48;6.65;;;;;;;;;;4896806;29;20048;-61
2022/12/07 01:45:05;;;;;;;10.48;6.65;;;;;;;;;;4898466;29;20095;-61
2022/12/07 01:47:32;;;;;;;9.68;6.78;;;;;;;;;;4900499;29;20051;-61
2022/12/07 01:49:58;;;;;;;12.43;7.43;;;;;;;;;;4899745;29;20119;-60
2022/12/07 01:52:25;;;;;;;10.02;7.85;;;;;;;;;;4884354;29;20512;-60
2022/12/07 01:54:54;;;;;;;12.57;6.57;;;;;;;;;;4882612;29;20144;-63
2022/12/07 01:57:21;;;;;;;9.40;7.50;;;;;;;;;;4898960;29;20059;-61
2022/12/07 01:59:48;;;;;;;9.15;7.03;;;;;;;;;;4900628;29;20131;-61
2022/12/07 02:02:19;;;;;;;9.18;6.72;;;;;;;;;;4883352;29;20143;-61
2022/12/07 02:04:46;;;;;;;9.45;6.53;;;;;;;;;;4900222;29;20072;-61
2022/12/07 02:07:12;;;;;;;8.70;6.45;;;;;;;;;;4899456;29;20052;-59
2022/12/07 02:09:39;;;;;;;12.30;7.20;;;;;;;;;;4900182;29;20505;-61
2022/12/07 02:12:05;;;;;;;10.10;7.15;;;;;;;;;;4900234;29;20048;-60
2022/12/07 02:14:32;;;;;;;10.43;6.85;;;;;;;;;;4900301;29;20045;-59
2022/12/07 02:17:04;;;;;;;10.18;6.93;;;;;;;;;;4899888;29;20045;-60
2022/12/07 02:19:49;;;;;;;9.13;6.53;;;;;;;;;;4901711;29;20040;-61
2022/12/07 02:22:16;;;;;;;10.82;6.97;;;;;;;;;;4899766;29;20100;-60
2022/12/07 02:24:49;;;;;;;8.73;6.40;;;;;;;;;;4900807;29;20497;-60
2022/12/07 02:27:33;;;;;;;9.97;5.83;;;;;;;;;;4900292;29;20565;-61
2022/12/07 02:30:00;;;;;;;;;;;;;;;;;;4902019;29;20327;-61
2022/12/07 02:32:32;;;;;;;7.75;5.30;;;;;;;;;;4902159;29;20384;-61
2022/12/07 02:35:04;;;;;;;8.35;5.53;;;;;;;;;;4884978;29;20052;-61
2022/12/07 02:37:43;;;;;;;8.38;5.82;;;;;;;;;;4885215;29;20072;-60
2022/12/07 02:40:12;;;;;;;8.75;6.18;;;;;;;;;;4885129;29;20049;-62
2022/12/07 02:42:42;;;;;;;9.18;6.47;;;;;;;;;;4883875;29;20048;-61
2022/12/07 02:45:10;;;;;;;7.75;5.80;;;;;;;;;;4899976;29;20113;-60
2022/12/07 02:47:37;;;;;;;7.63;5.93;;;;;;;;;;4900464;29;20171;-61
2022/12/07 02:50:04;;;;;;;8.27;6.22;;;;;;;;;;4900674;29;20056;-61
2022/12/07 02:52:31;;;;;;;7.32;5.63;;;;;;;;;;4899940;29;20044;-61
2022/12/07 02:54:58;;;;;;;7.80;5.45;;;;;;;;;;4898753;29;20072;-60
2022/12/07 02:57:27;;;;;;;10.10;6.18;;;;;;;;;;4899468;29;20040;-59
2022/12/07 03:00:01;;;;;;;7.63;5.40;;;;;;;;;;4883207;29;20406;-61
2022/12/07 03:02:37;;;;;;;8.63;6.03;;;;;;;;;;4899779;29;20433;-60
2022/12/07 03:05:23;;;;;;;8.52;6.28;;;;;;;;;;4882045;29;20075;-61
2022/12/07 03:07:53;;;;;;;7.22;5.47;;;;;;;;;;4899281;29;20473;-61
2022/12/07 03:10:27;;;;;;;8.52;6.53;;;;;;;;;;4899373;29;20516;-61
2022/12/07 03:12:53;;;;;;;10.30;6.50;;;;;;;;;;4899268;29;20048;-61
2022/12/07 03:15:25;;;;;;;9.20;6.65;;;;;;;;;;4898472;29;20553;-61
2022/12/07 03:17:55;;;;;;;9.80;6.60;;;;;;;;;;4899532;29;20152;-61
2022/12/07 03:20:23;;;;;;;9.32;6.30;;;;;;;;;;4897854;29;20096;-61
2022/12/07 03:22:50;;;;;;;9.48;6.43;;;;;;;;;;4898850;29;20075;-60
2022/12/07 03:25:17;;;;;;;10.55;6.22;;;;;;;;;;4881266;29;20068;-60
2022/12/07 03:27:43;;;;;;;10.93;6.10;;;;;;;;;;4898807;29;20067;-61
2022/12/07 03:30:12;;;;;;;12.07;7.10;;;;;;;;;;4898568;29;20501;-61
2022/12/07 03:32:44;;;;;;;9.30;5.75;;;;;;;;;;4898539;29;20075;-61
2022/12/07 03:35:10;;;;;;;9.18;6.43;;;;;;;;;;4880942;29;20458;-60
2022/12/07 03:37:40;;;;;;;9.02;6.72;;;;;;;;;;4881436;29;20131;-60
2022/12/07 03:40:11;;;;;;;11.35;7.32;;;;;;;;;;4898150;29;20454;-60
2022/12/07 03:42:37;;;;;;;9.93;6.60;;;;;;;;;;4899047;29;20142;-61
2022/12/07 03:45:05;;;;;;;9.10;6.57;;;;;;;;;;4898336;29;20100;-60
2022/12/07 03:47:38;;;;;;;9.48;6.45;;;;;;;;;;4898600;29;20053;-61
2022/12/07 03:50:05;;;;;;;9.48;6.88;;;;;;;;;;4898342;29;20108;-61
2022/12/07 03:52:42;;;;;;;11.00;6.63;;;;;;;;;;4897897;29;20045;-61
2022/12/07 03:55:10;;;;;;;9.95;6.55;;;;;;;;;;4897418;29;20036;-61
2022/12/07 03:57:38;;;;;;;10.90;6.85;;;;;;;;;;4897727;29;20091;-62
2022/12/07 04:00:06;;;;;;;8.88;6.57;;;;;;;;;;4897579;29;20045;-61
2022/12/07 04:02:37;;;;;;;9.95;6.80;;;;;;;;;;4898425;29;20059;-60
2022/12/07 04:05:06;;;;;;;14.05;8.07;;;;;;;;;;4897681;29;20670;-60
2022/12/07 04:07:32;;;;;;;8.90;6.68;;;;;;;;;;4897401;29;20059;-62
2022/12/07 04:09:58;;;;;;;10.35;7.00;;;;;;;;;;4897230;29;20036;-60
2022/12/07 04:12:26;;;;;;;9.35;6.78;;;;;;;;;;4897082;29;20045;-61
2022/12/07 04:14:52;;;;;;;10.32;7.20;;;;;;;;;;4898119;29;20123;-60
2022/12/07 04:17:18;;;;;;;12.43;7.75;;;;;;;;;;4881034;29;20122;-59
2022/12/07 04:19:45;;;;;;;11.07;7.85;;;;;;;;;;4898097;29;20561;-62
2022/12/07 04:22:11;;;;;;;11.15;7.38;;;;;;;;;;4898065;29;20052;-62
2022/12/07 04:24:38;;;;;;;13.82;8.07;;;;;;;;;;4897962;29;20056;-62
2022/12/07 04:27:04;;;;;;;13.27;8.32;;;;;;;;;;4880815;29;20058;-61
2022/12/07 04:29:31;;;;;;;11.35;8.13;;;;;;;;;;4897756;29;20450;-61
2022/12/07 04:31:57;;;;;;;11.43;7.13;;;;;;;;;;4897680;29;20100;-61
2022/12/07 04:34:24;;;;;;;11.18;7.50;;;;;;;;;;4898140;29;20040;-62
2022/12/07 04:36:50;;;;;;;11.85;8.25;;;;;;;;;;4897475;29;20040;-62
2022/12/07 04:39:18;;;;;;;12.75;8.85;;;;;;;;;;4881416;29;20048;-62
2022/12/07 04:41:45;;;;;;;11.95;8.23;;;;;;;;;;4897726;29;20511;-63
2022/12/07 04:44:14;;;;;;;11.32;7.55;;;;;;;;;;4897656;29;20096;-62
2022/12/07 04:46:41;;;;;;;11.88;8.40;;;;;;;;;;4897013;29;20056;-61
2022/12/07 04:49:07;;;;;;;12.35;7.18;;;;;;;;;;4897463;29;20055;-60
2022/12/07 04:51:34;;;;;;;12.02;7.68;;;;;;;;;;4897498;29;20048;-61
2022/12/07 04:54:00;;;;;;;15.52;8.70;;;;;;;;;;4897447;29;20096;-60
2022/12/07 04:56:27;;;;;;;13.90;8.80;;;;;;;;;;4896974;29;20078;-61
2022/12/07 04:58:54;;;;;;;12.50;7.97;;;;;;;;;;4897423;29;20079;-61
2022/12/07 05:01:20;;;;;;;11.75;8.07;;;;;;;;;;5364832;23;20840;-60
2022/12/07 05:03:47;;;;;;;13.27;8.77;;;;;;;;;;4915034;29;20048;-61
2022/12/07 05:06:14;;;;;;;12.85;8.82;;;;;;;;;;4915509;29;20119;-61
2022/12/07 05:08:41;;;;;;;14.00;9.63;;;;;;;;;;4916189;29;20555;-62
2022/12/07 05:11:07;;;;;;;13.52;9.10;;;;;;;;;;4916234;29;20445;-62
2022/12/07 05:13:34;;;;;;;11.77;7.80;;;;;;;;;;4916233;29;20104;-62
2022/12/07 05:16:00;;;;;;;11.68;8.02;;;;;;;;;;4915205;29;20099;-62
2022/12/07 05:18:27;;;;;;;13.25;8.10;;;;;;;;;;4916058;29;20134;-62
2022/12/07 05:20:53;;;;;;;13.27;8.13;;;;;;;;;;4916269;29;20564;-62
2022/12/07 05:23:20;;;;;;;14.65;7.60;;;;;;;;;;4899191;29;20052;-62
2022/12/07 05:25:46;;;;;;;12.00;8.45;;;;;;;;;;4915389;29;20044;-62
2022/12/07 05:28:12;;;;;;;15.80;9.38;;;;;;;;;;4899073;29;20112;-62
2022/12/07 05:30:39;;;;;;;14.85;9.82;;;;;;;;;;4916110;29;20423;-62
2022/12/07 05:33:05;;;;;;;14.82;9.93;;;;;;;;;;4898957;29;20075;-62
2022/12/07 05:35:31;;;;;;;13.57;8.95;;;;;;;;;;4915339;29;20127;-62
2022/12/07 05:37:58;;;;;;;12.70;8.60;;;;;;;;;;4915739;29;20044;-62
2022/12/07 05:40:24;;;;;;;15.13;9.48;;;;;;;;;;4915922;29;20118;-62
2022/12/07 05:42:50;;;;;;;13.88;8.95;;;;;;;;;;4915804;29;20601;-61
2022/12/07 05:45:17;;;;;;;13.93;9.52;;;;;;;;;;4916453;29;20104;-62
2022/12/07 05:47:43;;;;;;;14.48;10.07;;;;;;;;;;4916409;29;20079;-62
2022/12/07 05:50:10;;;;;;;14.30;9.50;;;;;;;;;;4917228;29;20127;-61
2022/12/07 05:52:36;;;;;;;17.20;10.73;;;;;;;;;;4915463;29;20464;-62
2022/12/07 05:55:02;;;;;;;18.52;12.27;;;;;;;;;;4915252;29;20071;-62
2022/12/07 05:57:29;;;;;;;20.25;11.80;;;;;;;;;;4915578;29;20071;-62
2022/12/07 05:59:55;;;;;;;14.95;9.77;;;;;;;;;;4898761;29;20147;-60
2022/12/07 06:02:21;;;;;;;16.73;10.63;;;;;;;;;;4916309;29;20071;-62
2022/12/07 06:04:48;;;;;;;14.25;9.65;;;;;;;;;;4916147;29;20052;-60
2022/12/07 06:07:15;;;;;;;13.30;9.55;;;;;;;;;;4915440;29;20434;-60
2022/12/07 06:09:45;;;;;;;13.75;9.25;;;;;;;;;;4915799;29;20477;-59
2022/12/07 06:12:33;;;;;;;14.38;9.82;;;;;;;;;;4915516;29;20556;-58
2022/12/07 06:15:00;;;;;;;15.90;10.60;;;;;;;;;;4915271;29;20059;-60
2022/12/07 06:17:26;;;;;;;18.25;10.20;;;;;;;;;;4915436;29;20486;-60
2022/12/07 06:19:52;;;;;;;17.00;10.85;;;;;;;;;;4915671;29;20048;-61
2022/12/07 06:22:19;;;;;;;15.00;10.13;;;;;;;;;;4915467;29;20072;-60
2022/12/07 06:24:45;;;;;;;15.95;10.02;;;;;;;;;;4915337;29;20048;-61
2022/12/07 06:27:12;;;;;;;14.93;10.52;;;;;;;;;;4898559;29;20036;-60
2022/12/07 06:29:38;;;;;;;15.55;9.75;;;;;;;;;;4915370;29;20048;-62
2022/12/07 06:32:05;;;;;;;15.68;11.25;;;;;;;;;;4886497;29;20139;-63
2022/12/07 06:34:31;;;;;;;14.02;9.75;;;;;;;;;;4918879;29;20485;-62
2022/12/07 06:36:57;;;;;;;17.02;11.38;;;;;;;;;;4918392;29;20095;-60
2022/12/07 06:39:25;;;;;;;18.65;10.52;;;;;;;;;;4901699;29;20091;-62
2022/12/07 06:41:51;;;;;;;18.77;10.73;;;;;;;;;;4918540;29;20044;-62
2022/12/07 06:44:18;;;;;;;16.60;11.05;;;;;;;;;;4918943;29;20048;-61
2022/12/07 06:46:45;;;;;;;18.42;11.13;;;;;;;;;;4918066;29;20044;-61
2022/12/07 06:49:12;;;;;;;15.63;10.82;;;;;;;;;;4918489;29;20048;-61
2022/12/07 06:51:41;;;;;;;17.40;10.85;;;;;;;;;;4918395;29;20044;-62
2022/12/07 06:54:11;;;;;;;16.77;10.07;;;;;;;;;;4901655;29;20068;-62
2022/12/07 06:56:37;;;;;;;15.85;11.25;;;;;;;;;;4917901;29;20063;-62
2022/12/07 06:59:05;;;;;;;19.10;11.38;;;;;;;;;;4918760;29;20500;-62
2022/12/07 07:01:32;;;;;;;19.10;11.55;;;;;;;;;;4918063;29;20568;-60
2022/12/07 07:03:58;;;;;;;17.27;12.15;;;;;;;;;;4918420;29;20055;-60
2022/12/07 07:06:25;;;;;;;17.98;11.55;;;;;;;;;;4900957;29;20117;-59
2022/12/07 07:08:51;;;;;;;17.63;12.13;;;;;;;;;;4918251;29;20044;-62
2022/12/07 07:11:18;;;;;;;17.40;11.57;;;;;;;;;;4901392;29;20493;-61
2022/12/07 07:13:45;;;;;;;19.58;11.60;;;;;;;;;;4921391;29;20127;-59
2022/12/07 07:16:11;;;;;;;20.83;11.02;;;;;;;;;;4907212;29;20048;-59
2022/12/07 07:18:38;;;;;;;19.30;11.75;;;;;;;;;;4887174;29;20147;-60
2022/12/07 07:21:04;;;;;;;18.15;10.75;;;;;;;;;;4899550;29;20132;-60
2022/12/07 07:23:30;;;;;;;17.55;10.95;;;;;;;;;;4899344;29;20559;-60
2022/12/07 07:25:57;;;;;;;15.40;10.82;;;;;;;;;;4881825;29;20100;-58
2022/12/07 07:28:24;;;;;;;15.88;10.65;;;;;;;;;;4882718;29;20044;-57
2022/12/07 07:30:50;;;;;;;19.60;11.98;;;;;;;;;;4882152;29;20080;-58
2022/12/07 07:33:16;;;;;;;18.48;11.65;;;;;;;;;;4898523;29;20045;-60
2022/12/07 07:35:43;;;;;;;20.95;11.65;;;;;;;;;;4898377;29;20049;-60
2022/12/07 07:38:09;;;;;;;17.50;10.68;;;;;;;;;;4898818;29;20079;-60
2022/12/07 07:40:36;;;;;;;17.30;10.18;;;;;;;;;;4898784;29;20108;-59
2022/12/07 07:43:03;;;;;;;19.88;11.75;;;;;;;;;;4898660;29;20052;-61
2022/12/07 07:45:29;;;;;;;21.13;12.45;;;;;;;;;;4898185;29;20100;-59
2022/12/07 07:47:56;;;;;;;14.98;10.73;;;;;;;;;;4898832;29;20569;-58
2022/12/07 07:50:22;;;;;;;18.80;11.77;;;;;;;;;;4898810;29;20135;-61
2022/12/07 07:52:49;;;;;;;18.08;11.82;;;;;;;;;;4898484;29;20055;-60
2022/12/07 07:55:15;;;;;;;19.00;11.65;;;;;;;;;;4898061;29;20398;-61
2022/12/07 07:57:42;;;;;;;18.80;11.45;;;;;;;;;;4898533;29;20059;-62
2022/12/07 08:00:10;;;;;;;16.50;11.27;;;;;;;;;;4898755;29;20079;-62
2022/12/07 08:02:40;;;;;;;17.50;11.35;;;;;;;;;;4881968;29;20052;-62
2022/12/07 08:05:07;;;;;;;17.67;11.23;;;;;;;;;;4897774;29;20055;-60
2022/12/07 08:07:34;;;;;;;20.92;12.05;;;;;;;;;;4898465;29;20411;-61
2022/12/07 08:10:06;;;;;;;18.42;12.15;;;;;;;;;;4898228;29;20132;-60
2022/12/07 08:12:35;;;;;;;17.60;12.00;;;;;;;;;;4898241;29;20080;-60
2022/12/07 08:15:01;;;;;;;17.73;11.25;;;;;;;;;;4897756;29;20123;-61
2022/12/07 08:17:28;;;;;;;19.17;13.07;;;;;;;;;;4898527;29;20112;-60
2022/12/07 08:19:54;;;;;;;17.92;12.25;;;;;;;;;;4898331;29;20068;-60
2022/12/07 08:22:20;;;;;;;17.48;11.75;;;;;;;;;;4897977;29;20108;-60
2022/12/07 08:24:47;;;;;;;15.15;10.85;;;;;;;;;;4898030;29;20132;-60
2022/12/07 08:27:13;;;;;;;18.58;11.77;;;;;;;;;;4897347;29;20124;-62
2022/12/07 08:29:39;;;;;;;17.58;11.70;;;;;;;;;;4897788;29;20222;-62
2022/12/07 08:32:06;;;;;;;18.10;11.75;;;;;;;;;;4897511;29;20048;-62
2022/12/07 08:34:35;;;;;;;16.77;11.38;;;;;;;;;;4897544;29;20044;-61
2022/12/07 08:37:02;;;;;;;17.67;11.75;;;;;;;;;;4897169;29;20044;-62
2022/12/07 08:39:29;;;;;;;23.35;13.73;;;;;;;;;;4881212;29;20505;-61
2022/12/07 08:41:57;;;;;;;19.92;14.65;;;;;;;;;;4897696;29;20056;-61
2022/12/07 08:44:24;;;;;;;19.08;12.15;;;;;;;;;;4897848;29;20089;-61
2022/12/07 08:47:02;;;;;;;17.98;11.60;;;;;;;;;;4896931;29;20044;-59
2022/12/07 08:49:33;;;;;;;14.93;10.48;;;;;;;;;;4897605;29;20119;-60
2022/12/07 08:51:59;;;;;;;15.95;11.38;;;;;;;;;;4897414;29;20111;-60
2022/12/07 08:54:26;;;;;;;17.83;11.02;;;;;;;;;;4897105;29;20077;-60
2022/12/07 08:56:53;;;;;;;15.63;10.55;;;;;;;;;;4896735;29;20050;-60
2022/12/07 08:59:25;;;;;;;18.75;11.90;;;;;;;;;;4897450;29;20048;-61
2022/12/07 09:01:52;;;;;;;17.45;11.55;;;;;;;;;;4897284;29;20048;-60
2022/12/07 09:04:20;;;;;;;16.75;11.10;;;;;;;;;;4897358;29;20175;-60
2022/12/07 09:06:46;;;;;;;17.50;11.63;;;;;;;;;;4880115;29;20057;-62
2022/12/07 09:09:13;;;;;;;17.30;11.13;;;;;;;;;;4897012;29;20454;-63
2022/12/07 09:11:40;;;;;;;19.45;11.63;;;;;;;;;;4897441;29;20123;-63
2022/12/07 09:14:06;;;;;;;15.52;11.50;;;;;;;;;;4897463;29;20041;-63
2022/12/07 09:16:33;;;;;;;18.25;11.35;;;;;;;;;;4896533;29;20406;-63
2022/12/07 09:18:59;;;;;;;15.95;10.82;;;;;;;;;;4897409;29;20116;-63
2022/12/07 09:21:25;;;;;;;18.85;12.23;;;;;;;;;;4897209;29;20048;-63
2022/12/07 09:23:52;;;;;;;17.92;11.95;;;;;;;;;;4896988;29;20140;-62
2022/12/07 09:26:18;;;;;;;17.92;11.05;;;;;;;;;;4896640;29;20041;-63
2022/12/07 09:28:45;;;;;;;17.02;10.75;;;;;;;;;;4896979;29;20202;-62
2022/12/07 09:31:11;;;;;;;18.10;11.95;;;;;;;;;;4896963;29;20059;-62
2022/12/07 09:34:07;;;;;;;16.15;10.55;;;;;;;;;;4897124;29;20450;-63
2022/12/07 09:36:33;;;;;;;;;;;;;;;;;;4896515;29;20049;-63
2022/12/07 09:39:00;;;;;;;15.35;10.30;;;;;;;;;;4880029;29;19923;-62
2022/12/07 09:41:27;;;;;;;15.80;11.50;;;;;;;;;;4897138;29;20048;-62
2022/12/07 09:43:57;;;;;;;17.05;10.82;;;;;;;;;;4897063;29;20104;-63
2022/12/07 09:46:24;;;;;;;16.02;11.20;;;;;;;;;;4896633;29;20041;-62
2022/12/07 09:48:50;;;;;;;15.30;10.13;;;;;;;;;;4896795;29;20068;-62
2022/12/07 09:51:21;;;;;;;17.17;11.57;;;;;;;;;;4879617;29;20395;-62
2022/12/07 09:53:54;;;;;;;18.00;11.27;;;;;;;;;;4897056;29;20045;-62
2022/12/07 09:56:21;;;;;;;18.25;11.43;;;;;;;;;;4896322;29;20049;-62
2022/12/07 09:58:49;;;;;;;16.08;10.77;;;;;;;;;;4896671;29;20032;-63
2022/12/07 10:01:16;;;;;;;29.77;16.70;;;;;;;;;;4896944;29;20048;-62
2022/12/07 10:03:54;;;;;;;19.48;12.18;;;;;;;;;;4897015;29;20494;-62
2022/12/07 10:06:20;;;;;;;15.85;10.65;;;;;;;;;;4898923;29;20108;-62
2022/12/07 10:08:47;;;;;;;17.92;11.35;;;;;;;;;;4883602;29;20053;-63
2022/12/07 10:11:14;;;;;;;14.88;10.40;;;;;;;;;;4900510;29;20048;-63
2022/12/07 10:13:49;;;;;;;19.80;11.20;;;;;;;;;;4883439;29;20052;-62
2022/12/07 10:16:24;;;;;;;18.10;12.73;;;;;;;;;;4899971;29;20048;-62
2022/12/07 10:18:51;;;;;;;17.77;12.73;;;;;;;;;;4883759;29;20052;-63
2022/12/07 10:21:23;;;;;;;16.95;10.27;;;;;;;;;;4900274;29;20075;-63
2022/12/07 10:24:04;;;;;;;16.90;11.30;;;;;;;;;;4901420;29;20116;-63
2022/12/07 10:26:34;;;;;;;15.32;9.52;;;;;;;;;;4919407;23;20584;-65
2022/12/07 10:29:04;;;;;;;19.02;10.55;;;;;;;;;;4902146;29;20076;-64
2022/12/07 10:31:30;;;;;;;18.60;11.90;;;;;;;;;;4919331;29;20054;-65
2022/12/07 10:33:58;;;;;;;18.05;10.80;;;;;;;;;;4902616;29;20044;-66
2022/12/07 10:36:35;;;;;;;17.02;10.00;;;;;;;;;;4899303;29;20377;-66
2022/12/07 10:39:13;;;;;;;19.23;11.10;;;;;;;;;;4883013;29;20049;-66
2022/12/07 10:41:59;;;;;;;13.35;9.75;;;;;;;;;;4882498;29;20060;-66
2022/12/07 10:44:27;;;;;;;15.15;10.15;;;;;;;;;;4882899;29;20079;-66
2022/12/07 10:47:14;;;;;;;16.40;9.68;;;;;;;;;;4882352;29;20122;-66
2022/12/07 10:49:47;;;;;;;12.85;8.32;;;;;;;;;;4883101;29;20071;-65
2022/12/07 10:52:40;;;;;;;13.98;9.20;;;;;;;;;;4899993;29;20524;-65
2022/12/07 10:55:25;;;;;;;16.38;10.38;;;;;;;;;;4882423;29;20685;-65
2022/12/07 10:57:51;;;;;;;13.38;8.77;;;;;;;;;;4882667;29;20049;-65
2022/12/07 11:00:18;;;;;;;14.77;8.70;;;;;;;;;;4882389;29;20108;-63
2022/12/07 11:03:03;;;;;;;17.08;10.65;;;;;;;;;;4899512;29;20394;-65
2022/12/07 11:05:38;;;;;;;16.90;10.65;;;;;;;;;;4898964;29;20045;-66
2022/12/07 11:08:18;;;;;;;13.13;8.70;;;;;;;;;;4899316;29;20037;-65
2022/12/07 11:10:50;;;;;;;23.33;13.82;;;;;;;;;;4868062;29;20059;-65
2022/12/07 11:13:22;;;;;;;13.00;9.20;;;;;;;;;;4899573;29;20045;-65
2022/12/07 11:16:00;;;;;;;11.52;7.95;;;;;;;;;;4898317;29;20132;-65
2022/12/07 11:18:30;;;;;;;12.35;8.98;;;;;;;;;;4899057;29;20103;-65
2022/12/07 11:21:19;;;;;;;12.73;8.10;;;;;;;;;;4882336;29;20041;-66
2022/12/07 11:23:49;;;;;;;13.88;8.13;;;;;;;;;;4877583;29;20056;-65
2022/12/07 11:26:39;;;;;;;21.05;10.35;;;;;;;;;;4898522;29;20505;-63
2022/12/07 11:29:27;;;;;;;27.30;10.77;;;;;;;;;;4899060;29;20104;-64
2022/12/07 11:32:14;;;;;;;37.53;13.13;;;;;;;;;;4899042;29;20041;-66
2022/12/07 11:34:41;;;;;;;32.70;11.50;;;;;;;;;;4899034;29;20049;-65
2022/12/07 11:37:13;;;;;;;35.33;12.25;;;;;;;;;;4898151;29;20157;-66
2022/12/07 11:39:44;;;;;;;21.00;8.88;;;;;;;;;;4882042;29;20052;-65
2022/12/07 11:42:14;;;;;;;16.73;8.63;;;;;;;;;;4866860;29;20051;-63
2022/12/07 11:44:52;;;;;;;28.77;11.60;;;;;;;;;;4882668;29;20067;-64
2022/12/07 11:47:27;;;;;;;14.98;8.07;;;;;;;;;;4881206;29;20070;-63
2022/12/07 11:49:55;;;;;;;18.63;8.98;;;;;;;;;;4881765;29;20416;-63
2022/12/07 11:52:27;;;;;;;18.52;8.90;;;;;;;;;;4866468;29;20509;-64
2022/12/07 11:54:53;;;;;;;20.45;9.82;;;;;;;;;;4881579;29;20135;-63
2022/12/07 11:57:30;;;;;;;22.33;10.20;;;;;;;;;;4881358;29;20056;-63
2022/12/07 11:59:59;;;;;;;9.70;6.28;;;;;;;;;;4898397;29;20072;-63
2022/12/07 12:02:46;;;;;;;13.80;8.82;;;;;;;;;;4881839;29;20047;-63
2022/12/07 12:05:18;;;;;;;9.85;5.93;;;;;;;;;;4881111;29;20056;-64
2022/12/07 12:07:46;;;;;;;7.88;5.00;;;;;;;;;;4898554;29;20072;-63
2022/12/07 12:10:32;;;;;;;6.63;4.68;;;;;;;;;;4881437;29;20135;-64
2022/12/07 12:13:28;;;;;;;9.27;5.38;;;;;;;;;;4898383;29;20048;-64
2022/12/07 12:16:30;;;;;;;8.10;4.40;;;;;;;;;;4893005;29;20429;-63
2022/12/07 12:18:57;;;;;;;7.22;4.15;;;;;;;;;;4898185;29;20052;-63
2022/12/07 12:21:27;;;;;;;7.47;4.72;;;;;;;;;;4898388;29;20136;-62
2022/12/07 12:23:59;;;;;;;7.60;4.18;;;;;;;;;;4898733;29;20106;-63
2022/12/07 12:26:27;;;;;;;6.38;4.38;;;;;;;;;;4881754;29;20059;-63
2022/12/07 12:28:56;;;;;;;8.95;4.95;;;;;;;;;;4881387;29;20040;-63
2022/12/07 12:31:23;;;;;;;9.68;4.70;;;;;;;;;;4881853;29;20524;-64
2022/12/07 12:33:54;;;;;;;7.45;4.40;;;;;;;;;;4899213;29;20051;-64
2022/12/07 12:36:20;;;;;;;6.25;4.47;;;;;;;;;;4898103;29;20055;-64
2022/12/07 12:38:50;;;;;;;4.80;3.88;;;;;;;;;;4899432;29;20048;-64
2022/12/07 12:41:35;;;;;;;7.90;4.40;;;;;;;;;;4899469;29;20123;-64
2022/12/07 12:44:02;;;;;;;6.57;4.55;;;;;;;;;;4898910;29;20068;-63
2022/12/07 12:46:29;;;;;;;6.75;4.50;;;;;;;;;;4897728;29;20044;-63
2022/12/07 12:49:13;;;;;;;5.18;4.05;;;;;;;;;;4881420;29;20430;-64
2022/12/07 12:51:41;;;;;;;7.05;4.10;;;;;;;;;;4881795;29;20056;-64
2022/12/07 12:54:31;;;;;;;5.35;4.00;;;;;;;;;;4898766;29;20041;-64
2022/12/07 12:57:16;;;;;;;6.07;3.63;;;;;;;;;;4889716;29;20116;-64
2022/12/07 12:59:52;;;;;;;5.65;3.92;;;;;;;;;;4882204;29;20108;-63
2022/12/07 13:02:22;;;;;;;5.35;3.72;;;;;;;;;;4898424;29;20055;-64
2022/12/07 13:04:50;;;;;;;5.32;3.60;;;;;;;;;;4881371;29;20418;-64
2022/12/07 13:07:37;;;;;;;6.97;4.15;;;;;;;;;;4880471;29;20492;-64
2022/12/07 13:10:04;;;;;;;7.47;4.22;;;;;;;;;;4887494;29;20064;-63
2022/12/07 13:12:31;;;;;;;6.03;4.10;;;;;;;;;;4880718;29;20041;-63
2022/12/07 13:14:58;;;;;;;7.65;3.88;;;;;;;;;;4880071;29;20096;-63
2022/12/07 13:17:31;;;;;;;6.05;3.67;;;;;;;;;;4896735;29;20055;-63
2022/12/07 13:20:03;;;;;;;5.60;3.65;;;;;;;;;;4880667;29;20052;-63
2022/12/07 13:22:29;;;;;;;8.60;3.92;;;;;;;;;;4865860;29;20442;-63
2022/12/07 13:25:05;;;;;;;5.65;4.38;;;;;;;;;;4881443;29;20045;-64
2022/12/07 13:27:32;;;;;;;5.47;3.47;;;;;;;;;;4897904;29;20052;-64
2022/12/07 13:29:59;;;;;;;7.15;3.92;;;;;;;;;;4897153;29;20041;-67
2022/12/07 13:32:27;;;;;;;4.70;3.30;;;;;;;;;;4880391;29;20045;-64
2022/12/07 13:34:53;;;;;;;6.85;3.70;;;;;;;;;;4896930;29;20474;-64
2022/12/07 13:37:32;;;;;;;4.32;3.42;;;;;;;;;;4896211;29;20443;-63
2022/12/07 13:40:17;;;;;;;3.97;3.15;;;;;;;;;;4900890;29;20518;-64
2022/12/07 13:42:43;;;;;;;5.30;3.50;;;;;;;;;;4871724;29;20052;-65
2022/12/07 13:48:20;;;;;;;7.03;5.32;;;;;;;;;;4886490;29;20565;-64
2022/12/07 13:50:46;;;;;;;;;;;;;;;;;;4887895;29;20411;-64
2022/12/07 13:53:15;;;;;;;6.10;4.20;;;;;;;;;;4886962;29;19930;-64
2022/12/07 13:55:46;;;;;;;5.72;4.10;;;;;;;;;;4871128;29;20100;-63
2022/12/07 13:58:20;;;;;;;6.72;4.60;;;;;;;;;;4887209;29;20044;-65
2022/12/07 14:00:50;;;;;;;8.85;5.68;;;;;;;;;;4903608;29;20545;-65
2022/12/07 14:03:17;;;;;;;9.07;4.85;;;;;;;;;;4886798;29;20041;-63
2022/12/07 14:05:44;;;;;;;7.32;5.40;;;;;;;;;;4886598;29;20513;-63
2022/12/07 14:08:12;;;;;;;7.40;5.28;;;;;;;;;;4887072;29;20057;-65
2022/12/07 14:10:49;;;;;;;7.53;4.82;;;;;;;;;;4887342;29;20044;-63
2022/12/07 14:13:28;;;;;;;7.85;5.10;;;;;;;;;;4871038;29;20048;-63
2022/12/07 14:15:58;;;;;;;10.07;5.85;;;;;;;;;;4902361;29;20045;-64
2022/12/07 14:18:29;;;;;;;10.55;6.25;;;;;;;;;;4886323;29;20052;-63
2022/12/07 14:21:15;;;;;;;7.25;4.40;;;;;;;;;;4871025;29;20064;-64
2022/12/07 14:23:41;;;;;;;9.50;5.35;;;;;;;;;;4886893;29;20084;-64
2022/12/07 14:26:15;;;;;;;10.27;5.75;;;;;;;;;;4903188;29;20115;-64
2022/12/07 14:28:43;;;;;;;10.50;6.15;;;;;;;;;;4870922;29;20052;-64
2022/12/07 14:31:11;;;;;;;11.10;6.43;;;;;;;;;;4885860;29;20089;-64
2022/12/07 14:33:45;;;;;;;11.82;6.15;;;;;;;;;;4902648;29;20481;-65
2022/12/07 14:36:13;;;;;;;9.65;6.07;;;;;;;;;;4885261;29;20036;-62
2022/12/07 14:38:39;;;;;;;11.98;6.63;;;;;;;;;;4885909;29;20498;-62
2022/12/07 14:43:55;;;;;;;7.78;5.40;;;;;;;;;;4886040;29;20077;-63
2022/12/07 14:46:41;;;;;;;16.85;7.80;;;;;;;;;;4885108;29;20731;-64
2022/12/07 14:49:08;;;;;;;12.80;7.65;;;;;;;;;;4902765;29;20127;-63
2022/12/07 14:51:54;;;;;;;14.48;7.18;;;;;;;;;;4899187;29;20049;-64
2022/12/07 14:54:41;;;;;;;13.80;6.93;;;;;;;;;;4899361;29;20048;-63
2022/12/07 14:57:08;;;;;;;8.82;5.40;;;;;;;;;;4899106;29;20070;-64
2022/12/07 14:59:35;;;;;;;8.60;5.03;;;;;;;;;;4899488;29;20052;-63